Résultats Course Nature 24 KM By PODER Bio

Pl.DosNomClubCatTempsMoyPar cat.
1.76LE NAY CyrilTEAM INTERSPORT PAIMPOL LANNIONSEH01:39:4514,441
2.183HUILTEC EddyFANCH RIDER TRAILM0H01:44:0013,851
3.18CALVEZ BenoitENDURANCE SHOP ST BRIEUCM1H01:44:1913,81
4.37CARDINAL FlorianTEAM SPORT LECLERC ST POL DE LÉONM0H01:45:5713,592
5.54HUITLEC ThomasASSO FANCH RIDER TRAILJUH01:46:0213,581
6.28GUILLOU QuentinKRYS BRESTSEH01:46:3013,522
7.77NEA MaximeSPEEDERIENS PLOUÉNANSEH01:47:0213,453
8.179JAFFRE LaurentM2H01:47:0213,451
9.149CARIOU RémyM4H01:47:1713,421
10.41MEVEL ThéoMASTRIA 53ESH01:47:3913,381
11.184KERVOAL YannickCTS ST THONANM1H01:48:3013,272
12.9LARIVAIN LudovicFOOTING LANDERNÉENM1H01:48:4113,253
13.86SIBIRIL YoannTEAM LECLERC SPORT ST POL DE LÉONESH01:49:0313,22
14.182GALLOU ThierryTEAM TRAIL BRETAGNEM2H01:50:2313,052
15.143PAPE JeremyLES TROTTERIENS LANDISEH01:50:4213,014
16.156L HERMITE DamienLES SEMELLES DE VENT SOOLM1H01:50:5612,984
17.188CHAUSSY MickaelCOURRIR SUR BRESTM2H01:51:0412,973
18.117MUSCAT SébastienBREST GOÉLOPEURSM0H01:51:3412,913
19.7AUNIS JeanLANNION ATHLÉTISMESEH01:52:0112,865
20.67CAROFF DominiquePAC-MAC PLOUZANÉM2H01:52:2412,814
21.141ABOLIVIER YohannIL ÉTAIT UN FOIEM1H01:52:5712,755
22.133CHARAVNER JulienSEH01:54:3212,576
23.83LE BRONNEC ErwanCOURIR À SAINT DIVYM2H01:55:0312,525
24.178KEROUANTON MichelOXYGÈNE PLOUNÉVENTERM3H01:56:2812,361
25.74JEGADEN GautierTERRE DE RUNNING LANNIONSEH01:56:4812,337
26.4LE SAINT FlorianSEH01:57:2712,268
27.150ROUAULT VincentREDEG 29 PLOURIN LES MORLAIXM1H01:57:3312,256
28.119MESSAGER AntoineAMBASSADEUR SALOMON FINISTÈRESEH01:58:0912,199
29.98LE JOLY DominiqueM3H01:58:2712,162
30.82AUFFRET SebastienTEAM LÉNAÏSM0H01:58:3312,154
31.94ARGOUARCH JordanTEAM TRAIL COULEUR AMBIANCESEH01:59:0012,110
32.196CHAMPION PierrickGOELOPPEURSM0H01:59:0212,15
33.60CHAPRON PascalBLÉS D'OR GOUESNOUM0H01:59:0912,096
34.177LE CUNFF GuillaumeAER SPORT LOISIRSEH02:00:2311,9611
35.43LE BIHAN JulienTEAM PLOUGONVENM0H02:01:1811,877
36.27LE BRAS NicolasM2H02:02:1711,786
37.69SENANT BenoitJOG BRUZM2H02:02:3011,767
38.68YVIN DamienTEAM SPORT LECLERC ST POL DE LÉONM0H02:02:4711,738
39.192GERARD JulienTEAM SPORT LECLERCSEH02:03:0311,712
40.102EDERN Jean MarcM1H02:03:3711,657
41.85BRAMOULLE YannTEAM HENAFF - SKOR MBM0H02:03:4011,649
42.162DORE NicolasCOURIR SUR BRESTM0H02:03:4811,6310
43.108JACOB EmmanuelleASSO FANCH RIDER TRAILSEF02:03:5211,631
44.142QUILLEVERE Pierre-YvesLES TROTTEURS DE LA PENZÉM0H02:04:2111,5811
45.176GUEGUEN PierreCOURIR À CHÂTEAULIN/TEAM RUN FAMILYM1H02:04:5611,538
46.112ROBIN JcTEAM LANDI TRIATHLONM0H02:05:4111,4612
47.101CAER Jean-BaptisteLA ROCHE SPORTS NATURESEH02:05:4711,4513
48.163LE BORGNE RégisTEAM KEOPSYS/LANNIONM1H02:05:5711,439
49.91KERMANAC'H ErwannM3H02:06:2411,393
50.90SIMON NicolasTEAM HENAFF - SKOR MBSEH02:07:3011,2914
51.51DAGNET ClaireLES FOULÉES RENANAISESM0F02:07:5611,261
52.151YVINEC GregoryBLÉS D'OR GOUESNOUM2H02:07:5611,268
53.42QUIMERCH StéphaneM3H02:08:0511,244
54.35COTONNEC ChristopheM2H02:08:1311,239
55.154ABJEAN AlexandreESH02:08:4311,193
56.122POULMARCH StéphaneLA ROCHE SPORTS NATUREM2H02:08:4711,1810
57.30QUEGUINER LaurennSEF02:10:2411,042
58.15LE FUR PaulCMBKM3H02:10:2611,045
59.23LAVANANT ArnaudBREST GOÉLOPEURSM1H02:10:2711,0410
60.125CADIOU CélineBREST GOÉLOPEURSM0F02:10:2811,042
61.146HERVE DavidLANNION TRIATHLONM2H02:10:4911,0111
62.53LE GRAND JulienM1H02:11:4510,9311
63.116PHELEPP RomainOXYGÈNE PLOUNÉVENTERSEH02:11:5010,9215
64.6LE REST MatthieuTEAM LÉNAÏSM0H02:11:5710,9113
65.168LE JEUNE YvonCOURIR À SANTECM3H02:12:0010,916
66.193KERLEROUX J BaptisteTREFLAOUENAN LES SWIMRUNNERS DU FAR OUESTM1H02:12:5510,8312
67.92CAER ThierryLES SWIMRUNNERS DU FAR OUESTM2H02:12:5510,8312
68.194KERLEROUX MathieuST VOUGAY LES SWIMRUNNERS DU FAR OUESTM1H02:12:5610,8313
69.58URIEN YvonREDEG 29 PLOURIN LES MORLAIXM4H02:12:5810,832
70.180CABOCHE VincentSEH02:13:4210,7716
71.191CUEFF XavierMILIZACM1H02:13:4710,7614
72.139FAGOT DanielLES TROTTEURS DE LA PENZÉM4H02:13:4910,763
73.159COENT ErwanM1H02:13:5410,7515
74.8CONSEIL NicolasLES TROTTEURS DE LA PENZÉSEH02:13:5510,7517
75.13BRAMOULLE LionelDAUPHIN DE L'ELORN DE LANDERNEAUM4H02:13:5910,754
76.187JEANNE NathalieEQUIP CLUB MADININAM3F02:14:0510,741
77.158GALLET MyriamNATURVANM2F02:14:1710,721
78.131SIKORA Jean ChristopheDAUPHINS DE L'ELORN TRIATHLON LANDERNEAUM2H02:14:1710,7213
79.52KERFOURN Jean-MichelM3H02:14:5110,687
80.10CZULINSKI DavidM2H02:15:1010,6514
81.134BOUGET StephanieCOURIR À MORLAIXM2F02:15:2510,632
82.45GOUEZ PierreM4H02:15:2610,635
83.65LE BIHAN .OlivierECUM CLEDERM2H02:15:2710,6315
84.22MICHEL JonathanM0H02:15:3910,6214
85.190PONSARD JeromeLES TROTTEURS DE LA PENZEM1H02:15:4810,616
86.44CAZUGUEL MyriamBLÉS D'OR GOUESNOUM0F02:15:5810,593
87.63EUZEN EricLA BOISSIÈRE S'AMUSEM2H02:16:1810,5616
88.40JEZEQUEL NicolasTEAM SPORT LECLERC ST POL DE LÉONM0H02:16:2610,5515
89.155MARZIN StevenSEH02:16:3110,5518
90.79BELLEC RaymondLES FOULÉES DU KERNICM5H02:16:3310,551
91.97LE BOULC'H Pierre-FrançoisM0H02:16:4710,5316
92.106LE VELLY LaurentM2H02:16:5010,5217
93.144BESNOUX NadegeRUZ BOUTOU PLOUGASNOUM1F02:17:0010,511
94.81ESNEE StephaneRUZ BOUTOU PLOUGASNOUM3H02:17:0010,518
95.147LADAN LudovicLA ROCHE SPORTS NATUREM2H02:17:3210,4718
96.121KNAB NicolasM1H02:18:0010,4317
97.185UGUEN MaelTEAM TRAIL ABER BENOITESH02:18:1210,424
98.95GAUDRON CédricLEGION ST-PIERRE RUNNINGM1H02:19:1110,3518
99.140BACCUS DenisATLANTIS BRETAGNE PLONGÉEM4H02:19:1410,346
100.110MASSON LudovicSEH02:19:1510,3419
101.84MEVEL MarcM2H02:19:4210,3119
102.26L'HOUR AnthonyTEAM SPORT LECLERC ST POL DE LÉONSEH02:20:4010,2420
103.195BOLLAND AlainPLOUDANIELM3H02:20:5610,229
104.5HARDY SergeCLUB ALPIN FRANÇAIS - BRESTM3H02:20:5710,2210
105.171LE BERRE Jean PierreCOURIR À SANTECM4H02:20:5710,227
106.25MEVEL LudoMASTRIA 53M3H02:21:0110,2111
107.75BOURGIN EricREDEG 29 PLOURIN LES MORLAIXM2H02:21:2210,1920
108.89KERDILES FrançoisLES TROTTEURS DE LA PENZÉM4H02:21:2910,188
109.20GRALL MarcelSPEEDERIENS PLOUÉNANM5H02:22:0910,132
110.64LE BOLLOCH StéphanieLA BOISSIÈRE S'AMUSEM2F02:22:1310,133
111.70DAGORN JeromeAS BEGARDM2H02:22:1310,1321
112.126KEROMNES GilbertCOURIR À MORLAIXM6H02:22:2610,111
113.167CHAPALAIN PhilippeLES ROSCOVITESM0H02:22:5510,0817
114.2BARON Christophe1RUN 1DÉCHETM3H02:23:0210,0712
115.71LORANT ProsperMIL PAT DE L AULNEM6H02:23:3810,032
116.135SAOS GilbertEVIT AR BLIJADURM4H02:23:4110,029
117.166DARGENT GregoryEQUIP CLUB MADININAM1H02:23:591019
118.136LAZENNEC DavidEQUIP CLUB MADININAM3H02:24:001013
119.47LEROY Maurice-HenriPASS J'AIME COURIRM3H02:24:369,9614
120.127LE SAOUT LaurentMORLAIX TRIATHLONM3H02:25:059,9315
121.78BODROS PatrickBREIZH SPORT AVENTURE-COURIR POUR OWENM2H02:25:419,8822
122.93HERAULT ChristelM3F02:26:419,822
123.73PHILIP GaetanTRAIL RUNING LANMEUR TREGORM0H02:27:379,7518
124.104LE GAC Pierre-YvesBREST GOÉLOPEURSM2H02:27:569,7323
125.55ROCHE AnastasiaLA ROCHE SPORTS NATURESEF02:28:009,733
126.48PLANTEC DanielREDERIEN PLOUGOULMM3H02:28:209,7116
127.96BOTHOREL PatrickM5H02:28:249,73
128.39FAVE ErwanOXYGÈNE PLOUNÉVENTERM0H02:28:469,6819
129.72FAUJOUR LIONEL LionelMISS MATHILDE AVEC ECLASM0H02:28:479,6820
130.12CHAUVEL Jean-FrançoisM0H02:29:479,6121
131.29HELLEGOET ChristelleLES TROTTERIENS LANDIM1F02:29:509,612
132.129BERNAS AnnePACMAC PLOUZANEM4F02:30:009,61
133.114BOUR GrégoryM0H02:30:009,622
134.115LE NAVIEL AnthonyS/L ES CORSENM1H02:30:289,5720
135.138BODROS KarineTROTERRIEN LANDIVISIAUM1F02:31:019,543
136.113PERAN ClaudeEVIT AR BLIJADURM3H02:31:059,5317
137.57PAUGAM ErwanEQUIP CLUB MADININAM2H02:31:089,5324
138.160MINOC AnthonyCALIF TEAMM0H02:31:269,5123
139.99JOSSET LionelTORTUES DE L'ELORNM3H02:31:329,518
140.103PICHON ClaudeLES TROTTERIENS LANDIM4H02:31:389,510
141.66HABASQUE MathieuTEAM SPORT LECLERC ST POL DE LÉONSEH02:31:439,4921
142.38HENRIO ROUSSELOT MorganeLES ROSCOVITESM1F02:31:439,494
143.109DUMONT VincentSEH02:31:479,4922
144.111BIHAN MatthieuIL ÉTAIT UN FOIEM0H02:31:579,4824
145.33SANSEAU HervéBREST GOÉLOPEURSM2H02:32:029,4725
146.31AUBRY CelineTROTTERIEN LANDI /ASHMM1F02:32:129,465
147.50GAC ArnaudCOURIR À CHATEAULINM0H02:32:549,4225
148.153EVEN JulienSEH02:33:549,3623
149.145CABIOCH SeverineCOURIR À MORLAIXM2F02:33:549,364
150.124MORIZUR BertrandIL ÉTAIT UN FOIEM2H02:34:279,3226
151.173MESTRIES NadiaKASTELL TRAIL RUNNINGM1F02:34:339,326
152.174MESTRIES FredericKASTELL TRAIL RUNNINGM1H02:34:349,3221
153.56TOANEN DenisBREST GOÉLOPEURSM3H02:34:409,3119
154.164BLEUNVEN NicolasKASTELL TRAIL RUNNINGSEH02:37:239,1524
155.118VERZA GabrielKASTELL TRAIL RUNNINGM0H02:37:479,1326
156.152OLIER Jean LucKASTELL TRAIL RUNNINGM4H02:37:479,1311
157.123LE VOURC'H GuyRIBINLOGONNAM3H02:38:079,1120
158.169MOAL SylvieKASTELL TRAIL RUNNINGM1F02:39:299,037
159.170BENGMEL FatimaKASTELL TRAIL RUNNINGM2F02:39:299,035
160.80MAUGER StéphaneM2H02:40:208,9827
161.100JOSSET ValériePAYS LANDERNEAU ATHLÉTISMEM3F02:40:578,953
162.87ABILY DimitriKOALASEH02:41:428,9125
163.16VASSARD LudovicLES TROTTEURS DE LA PENZÉM1H02:42:208,8722
164.1ABALAIN ChristopheTEAM SPORT LECLERC ST POL DE LÉONM0H02:43:348,827
165.186ROSEC AnthonyAS BPM0H02:43:358,828
166.130QUERE FrédéricM1H02:43:488,7923
167.36URBIN Jean MarcM5H02:46:408,644
168.17LENOIR BenoitM2H02:47:418,5928
169.161MOMINOUS ChristopheM1H02:47:488,5824
170.181TRUBLET PatriceCOURIR À MORLAIXM3H02:48:048,5721
171.105GUEGUEN KarenCOURIR À CHÂTEAULIN/TEAM RUN FAMILYM1F02:48:048,578
172.19RIOU VincentSEH02:49:158,5126
173.189GRILLE RegisCOURRIR A BOURG BLANCM6H02:50:008,473
174.21BOTHUAN RenéM7H02:51:268,41
175.61TEURNIER CorinneREDEG 29 PLOURIN LES MORLAIXM2F02:54:198,266
176.34MICAULT JosephLES TROTTEURS DE LA PENZÉM6H02:55:088,224
177.172DERRIEN GillesKASTELL TRAIL RUNNINGM3H02:56:498,1422
178.165MASSON AnneM1F02:56:508,149
179.128AZOU RenéKASTELL TRAIL RUNNING02:56:508,14
180.59URIEN MarylineREDEG 29 PLOURIN LES MORLAIXM3F02:58:198,084
181.62TEURNIER LaurentREDEG 29 PLOURIN LES MORLAIXM2H02:58:198,0829
182.46BERDEAUX FrançoisCOURIR À CHATEAULINM2H03:02:497,8830
183.157MORVAN KarineLES FOULÉES DU KERNICM2F03:09:007,627
184.88ABILY Jean YvesM5H03:12:447,475
185.175ROUDAUT CélineLES TROTTEURS DE LA PENZÉM1F03:20:567,1710
186.14CABIOCH MarieLES TROTTEURS DE LA PENZÉM4F03:20:577,172

Nos Partenaires